Airfield :
LOGIN :

Register | Disclaimer

   EN    FR    IT 

 










Legend :    VFR   Marginal VFR   IFR   Intensive IFR   Very Intensive IFR
Visi :
Ceiling :
>= 8 km
>= 3000ft
5 to 8 km
1000 to 3000 ft
1500m to 5 km
500 to 1000 ft
800 to 1500m
200 to 500 ft
< 800m
< 200 ft
Symbols :   Thunderstorms  Fog  Heavy snow  Heavy precipitations  Wind > 20 kt
SIGMETs :     Misc.  Thunderstorms  Icing  Turbulence  Mountain Waves  Volcanic Ashes






- Airport Elevation : 1470 ft


LSMD - Dubendorf Military

CURRENT METAR :
  • 190750Z AUTO 11006KT 020V140 2500NDV BR NCD 24/16 Q1014 RMK

EXPIRED METARs :
  • 190720Z AUTO 10006KT 050V210 2600NDV NCD 24/17 Q1014 RMK
  • 190650Z AUTO VRB02KT 2300NDV NCD 23/17 Q1014 RMK
  • 190620Z AUTO VRB01KT 9999NDV NCD 22/16 Q1014 RMK
  • 190550Z AUTO 32004KT 9999NDV NCD 20/17 Q1014 RMK
  • 190520Z AUTO 00000KT 9999NDV FEW140 18/16 Q1014 RMK
  • 190450Z AUTO 00000KT 9999NDV NCD 17/15 Q1014 RMK
  • 190420Z AUTO VRB01KT 9999NDV FEW150 16/15 Q1014 RMK
  • 190350Z AUTO VRB01KT 9999NDV FEW150 16/15 Q1014 RMK
  • 190320Z AUTO 00000KT 9999NDV NCD 16/15 Q1014 RMK

Expired Forecast.



MET'MAP, your aeronautical weather chart ! - Copyright ORBIFLY December 2007 - Disclaimer

ORBIFLY MET'MAP TEAM :

Programming & Development : Alexandra Zaïnal
Original concept : Baudouin d'Aumeries
Technical & hardware support : Manuel Goepfert
Assistance : Marc-Olivier Méhu




SOURCES & CREDITS :

   NOAA